createdAt,value
2022-08-10T00:01:40.069Z,20.10
2022-08-10T00:04:08.671Z,20.10
2022-08-10T00:06:38.692Z,20.10
2022-08-10T00:09:06.699Z,20.10
2022-08-10T00:11:34.658Z,20.10
2022-08-10T00:14:02.880Z,20.10
2022-08-10T00:16:30.935Z,20.00
2022-08-10T00:18:58.954Z,20.00
2022-08-10T00:21:27.151Z,20.00
2022-08-10T00:23:56.771Z,19.90
2022-08-10T00:26:24.795Z,19.90
2022-08-10T00:28:54.249Z,19.80
2022-08-10T00:31:22.299Z,19.80
2022-08-10T00:33:50.461Z,19.80
2022-08-10T00:36:18.512Z,19.80
2022-08-10T00:38:46.777Z,19.80
2022-08-10T00:41:16.211Z,19.80
2022-08-10T00:43:44.261Z,19.70
2022-08-10T00:46:12.382Z,19.70
2022-08-10T00:48:40.373Z,19.70
2022-08-10T00:51:08.750Z,19.60
2022-08-10T00:53:36.883Z,19.60
2022-08-10T00:57:17.036Z,19.60
2022-08-10T00:58:54.940Z,19.60
2022-08-10T01:02:10.009Z,19.60
2022-08-10T01:04:36.207Z,19.50
2022-08-10T01:07:19.999Z,19.50
2022-08-10T01:09:57.401Z,19.50
2022-08-10T01:12:40.292Z,19.50
2022-08-10T01:15:17.759Z,19.50
2022-08-10T01:17:54.826Z,19.40
2022-08-10T01:20:31.227Z,19.40
2022-08-10T01:23:52.789Z,19.40
2022-08-10T01:26:37.306Z,19.40
2022-08-10T01:29:30.892Z,19.30
2022-08-10T01:32:03.363Z,19.30
2022-08-10T01:34:37.878Z,19.30
2022-08-10T01:37:13.176Z,19.30
2022-08-10T01:39:46.298Z,19.20
2022-08-10T01:42:19.532Z,19.20
2022-08-10T01:44:53.549Z,19.20
2022-08-10T01:47:44.072Z,19.20
2022-08-10T01:50:19.251Z,19.10
2022-08-10T01:52:49.656Z,19.10
2022-08-10T01:55:18.907Z,19.00
2022-08-10T01:57:48.407Z,19.00
2022-08-10T02:00:19.108Z,19.00
2022-08-10T02:02:49.980Z,19.00
2022-08-10T02:05:18.837Z,18.90
2022-08-10T02:07:50.000Z,18.90
2022-08-10T02:10:20.379Z,18.90
2022-08-10T02:12:49.619Z,18.90
2022-08-10T02:15:21.595Z,18.80
2022-08-10T02:17:59.876Z,18.80
2022-08-10T02:20:34.094Z,18.80
2022-08-10T02:23:05.286Z,18.80
2022-08-10T02:25:40.580Z,18.80
2022-08-10T02:28:30.190Z,18.70
2022-08-10T02:31:06.410Z,18.70
2022-08-10T02:33:37.990Z,18.70
2022-08-10T02:36:08.158Z,18.70
2022-08-10T02:38:58.379Z,18.70
2022-08-10T02:45:12.566Z,18.70
2022-08-10T02:45:27.175Z,18.70
2022-08-10T02:47:23.016Z,18.70
2022-08-10T02:49:57.118Z,18.70
2022-08-10T02:52:36.501Z,18.60
2022-08-10T02:55:18.179Z,18.60
2022-08-10T02:58:13.327Z,18.60
2022-08-10T03:00:45.156Z,18.60
2022-08-10T03:03:23.871Z,18.60
2022-08-10T03:05:56.501Z,18.60
2022-08-10T03:08:29.513Z,18.50
2022-08-10T03:11:00.657Z,18.50
2022-08-10T03:13:30.326Z,18.50
2022-08-10T03:16:00.459Z,18.50
2022-08-10T03:18:33.275Z,18.50
2022-08-10T03:21:01.917Z,18.40
2022-08-10T03:23:30.665Z,18.40
2022-08-10T03:26:00.826Z,18.40
2022-08-10T03:28:31.262Z,18.40
2022-08-10T03:31:01.676Z,18.40
2022-08-10T03:33:34.238Z,18.30
2022-08-10T03:36:41.641Z,18.30
2022-08-10T03:38:52.464Z,18.30
2022-08-10T03:41:25.039Z,18.20
2022-08-10T03:43:54.596Z,18.20
2022-08-10T03:46:27.320Z,18.20
2022-08-10T03:49:01.407Z,18.20
2022-08-10T03:51:30.383Z,18.20
2022-08-10T03:54:04.440Z,18.20
2022-08-10T03:56:37.701Z,18.20
2022-08-10T03:59:07.186Z,18.20
2022-08-10T04:02:44.274Z,18.20
2022-08-10T04:04:26.081Z,18.20
2022-08-10T04:06:55.711Z,18.10
2022-08-10T04:09:25.019Z,18.10
2022-08-10T04:12:11.113Z,18.10
2022-08-10T04:14:50.507Z,18.10
2022-08-10T04:18:01.257Z,18.10
2022-08-10T04:20:17.948Z,18.10
2022-08-10T04:22:49.553Z,18.00
2022-08-10T04:25:17.921Z,18.00
2022-08-10T04:27:47.655Z,18.00
2022-08-10T04:30:16.013Z,18.00
2022-08-10T04:32:46.724Z,18.00
2022-08-10T04:35:19.862Z,18.00
2022-08-10T04:37:49.430Z,18.00
2022-08-10T04:40:25.377Z,18.00
2022-08-10T04:43:01.310Z,18.00
2022-08-10T04:45:49.613Z,18.00
2022-08-10T04:48:42.497Z,18.00
2022-08-10T04:51:18.356Z,17.90
2022-08-10T04:54:04.982Z,18.00
2022-08-10T04:56:36.055Z,17.90
2022-08-10T04:59:05.327Z,17.90
2022-08-10T05:02:22.568Z,17.90
2022-08-10T05:04:34.421Z,18.00
2022-08-10T05:07:15.471Z,17.90
2022-08-10T05:10:02.740Z,17.90
2022-08-10T05:12:35.947Z,17.90
2022-08-10T05:15:06.078Z,17.90
2022-08-10T05:17:35.769Z,17.90
2022-08-10T05:20:06.664Z,17.90
2022-08-10T05:22:41.176Z,17.90
2022-08-10T05:25:11.311Z,18.00
2022-08-10T05:27:39.905Z,18.00
2022-08-10T05:30:13.796Z,18.00
2022-08-10T05:32:56.959Z,18.00
2022-08-10T05:35:39.076Z,18.00
2022-08-10T05:38:21.373Z,18.00
2022-08-10T05:40:50.716Z,18.00
2022-08-10T05:43:19.694Z,18.00
2022-08-10T05:46:16.706Z,18.10
2022-08-10T05:48:55.624Z,18.00
2022-08-10T05:51:26.430Z,18.10
2022-08-10T05:54:00.824Z,18.10
2022-08-10T05:56:54.210Z,18.10
2022-08-10T06:00:29.527Z,18.10
2022-08-10T06:02:33.348Z,18.20
2022-08-10T06:05:06.353Z,18.20
2022-08-10T06:07:38.428Z,18.30
2022-08-10T06:10:11.871Z,18.30
2022-08-10T06:12:54.895Z,18.30
2022-08-10T06:15:51.588Z,18.40
2022-08-10T06:18:14.036Z,18.40
2022-08-10T06:20:42.703Z,18.40
2022-08-10T06:23:12.649Z,18.50
2022-08-10T06:26:09.630Z,18.50
2022-08-10T06:28:33.875Z,18.50
2022-08-10T06:31:03.951Z,18.60
2022-08-10T06:33:35.148Z,18.70
2022-08-10T06:36:04.532Z,18.70
2022-08-10T06:38:34.911Z,18.80
2022-08-10T06:41:17.974Z,18.90
2022-08-10T06:43:54.744Z,18.90
2022-08-10T06:46:24.989Z,19.00
2022-08-10T06:48:56.268Z,19.00
2022-08-10T06:51:27.111Z,19.10
2022-08-10T06:53:57.647Z,19.20
2022-08-10T06:56:35.847Z,19.20
2022-08-10T06:59:08.676Z,19.30
2022-08-10T07:01:52.723Z,19.40
2022-08-10T07:04:32.690Z,19.40
2022-08-10T07:07:05.224Z,19.50
2022-08-10T07:09:36.686Z,19.60
2022-08-10T07:12:09.338Z,19.70
2022-08-10T07:14:44.476Z,19.80
2022-08-10T07:17:15.891Z,19.90
2022-08-10T07:19:49.675Z,19.90
2022-08-10T07:23:27.284Z,20.00
2022-08-10T07:25:11.822Z,20.10
2022-08-10T07:28:00.487Z,20.20
2022-08-10T07:30:32.546Z,20.30
2022-08-10T07:33:02.605Z,20.30
2022-08-10T07:35:41.500Z,20.40
2022-08-10T07:38:18.459Z,20.50
2022-08-10T07:40:49.288Z,20.60
2022-08-10T07:43:21.712Z,20.60
2022-08-10T07:45:50.684Z,20.70
2022-08-10T07:48:22.821Z,20.80
2022-08-10T07:50:57.841Z,20.90
2022-08-10T07:53:28.944Z,21.00
2022-08-10T07:56:04.371Z,21.10
2022-08-10T07:58:47.254Z,21.20
2022-08-10T08:01:24.081Z,21.20
2022-08-10T08:04:05.769Z,21.30
2022-08-10T08:06:41.306Z,21.40
2022-08-10T08:09:10.212Z,21.50
2022-08-10T08:11:39.420Z,21.60
2022-08-10T08:14:10.576Z,21.70
2022-08-10T08:16:41.623Z,21.80
2022-08-10T08:19:27.816Z,21.90
2022-08-10T08:24:07.956Z,22.00
2022-08-10T08:24:46.925Z,22.00
2022-08-10T08:27:19.882Z,22.10
2022-08-10T08:29:53.031Z,22.20
2022-08-10T08:32:23.431Z,22.30
2022-08-10T08:34:55.649Z,22.40
2022-08-10T08:38:30.178Z,22.50
2022-08-10T08:40:19.724Z,22.50
2022-08-10T08:43:28.466Z,22.60
2022-08-10T08:46:28.719Z,22.70
2022-08-10T08:50:04.798Z,22.80
2022-08-10T08:52:19.039Z,22.90
2022-08-10T08:54:59.432Z,23.00
2022-08-10T08:57:49.583Z,23.10
2022-08-10T09:00:29.424Z,23.20
2022-08-10T09:03:27.573Z,23.40
2022-08-10T09:06:07.101Z,23.40
2022-08-10T09:09:02.040Z,23.60
2022-08-10T09:11:42.230Z,23.70
2022-08-10T09:14:25.711Z,23.80
2022-08-10T09:16:58.777Z,23.90
2022-08-10T09:19:36.586Z,24.00
2022-08-10T09:22:17.970Z,24.10
2022-08-10T09:24:53.092Z,24.10
2022-08-10T09:27:24.065Z,24.20
2022-08-10T09:29:56.399Z,24.30
2022-08-10T09:36:14.963Z,24.30
2022-08-10T09:36:20.910Z,24.40
2022-08-10T09:38:47.475Z,24.40
2022-08-10T09:41:26.254Z,24.50
2022-08-10T09:44:07.501Z,24.60
2022-08-10T09:46:52.157Z,24.60
2022-08-10T09:49:53.931Z,24.70
2022-08-10T09:52:31.120Z,24.70
2022-08-10T09:55:13.151Z,24.80
2022-08-10T09:57:51.235Z,24.90
2022-08-10T10:00:28.266Z,25.00
2022-08-10T10:03:17.715Z,25.00
2022-08-10T10:06:02.615Z,25.10
2022-08-10T10:08:42.667Z,25.10
2022-08-10T10:11:17.783Z,25.20
2022-08-10T10:14:04.020Z,25.20
2022-08-10T10:16:55.027Z,25.30
2022-08-10T10:19:40.325Z,25.40
2022-08-10T10:22:26.100Z,25.50
2022-08-10T10:25:19.517Z,25.60
2022-08-10T10:27:57.475Z,25.60
2022-08-10T10:30:27.340Z,25.70
2022-08-10T10:33:03.785Z,25.80
2022-08-10T10:35:38.834Z,25.90
2022-08-10T10:38:13.555Z,25.90
2022-08-10T10:40:50.633Z,26.00
2022-08-10T10:43:41.067Z,26.00
2022-08-10T10:46:24.074Z,26.10
2022-08-10T10:49:01.726Z,26.10
2022-08-10T10:51:35.422Z,26.10
2022-08-10T10:54:17.527Z,26.20
2022-08-10T10:56:57.036Z,26.30
2022-08-10T10:59:55.789Z,26.30
2022-08-10T11:02:36.599Z,26.30
2022-08-10T11:05:17.664Z,26.30
2022-08-10T11:07:54.990Z,26.40
2022-08-10T11:10:32.609Z,26.40
2022-08-10T11:14:25.831Z,26.50
2022-08-10T11:16:31.174Z,26.50
2022-08-10T11:19:11.552Z,26.50
2022-08-10T11:21:51.064Z,26.50
2022-08-10T11:24:42.846Z,26.60
2022-08-10T11:27:23.398Z,26.60
2022-08-10T11:30:03.778Z,26.70
2022-08-10T11:32:38.466Z,26.70
2022-08-10T11:35:16.004Z,26.80
2022-08-10T11:38:31.040Z,26.90
2022-08-10T11:40:50.328Z,26.90
2022-08-10T11:43:22.721Z,27.00
2022-08-10T11:46:02.939Z,27.00
2022-08-10T11:48:52.979Z,27.20
2022-08-10T11:51:31.026Z,27.20
2022-08-10T11:54:09.896Z,27.30
2022-08-10T11:56:48.029Z,27.40
2022-08-10T11:59:37.841Z,27.50
2022-08-10T12:02:09.149Z,27.50
2022-08-10T12:04:40.150Z,27.60
2022-08-10T12:10:02.460Z,27.60
2022-08-10T12:10:13.394Z,27.60
2022-08-10T12:12:51.751Z,27.60
2022-08-10T12:15:26.657Z,27.60
2022-08-10T12:18:02.891Z,27.70
2022-08-10T12:20:34.694Z,27.80
2022-08-10T12:23:12.642Z,27.90
2022-08-10T12:25:57.409Z,28.00
2022-08-10T12:28:50.959Z,28.00
2022-08-10T12:31:26.111Z,28.00
2022-08-10T12:34:06.512Z,28.10
2022-08-10T12:36:41.535Z,28.20
2022-08-10T12:39:16.933Z,28.30
2022-08-10T12:41:54.277Z,28.40
2022-08-10T12:44:42.067Z,28.50
2022-08-10T12:47:19.465Z,28.60
2022-08-10T12:50:31.559Z,28.60
2022-08-10T12:52:53.096Z,28.70
2022-08-10T12:55:22.131Z,28.70
2022-08-10T12:57:55.264Z,28.70
2022-08-10T13:00:30.659Z,28.80
2022-08-10T13:03:02.677Z,28.90
2022-08-10T13:06:01.991Z,28.90
2022-08-10T13:08:41.531Z,29.00
2022-08-10T13:11:24.409Z,29.10
2022-08-10T13:14:10.510Z,29.10
2022-08-10T13:16:40.814Z,29.20
2022-08-10T13:19:14.301Z,29.20
2022-08-10T13:21:44.765Z,29.20
2022-08-10T13:24:19.646Z,29.30
2022-08-10T13:27:24.542Z,29.30
2022-08-10T13:29:45.093Z,29.40
2022-08-10T13:32:22.226Z,29.40
2022-08-10T13:34:52.824Z,29.40
2022-08-10T13:37:26.681Z,29.50
2022-08-10T13:40:00.631Z,29.60
2022-08-10T13:42:33.866Z,29.60
2022-08-10T13:45:09.553Z,29.70
2022-08-10T13:47:48.754Z,29.70
2022-08-10T13:50:34.555Z,29.80
2022-08-10T13:53:13.951Z,29.80
2022-08-10T13:55:55.524Z,29.90
2022-08-10T13:58:27.794Z,29.90
2022-08-10T14:00:58.909Z,30.00
2022-08-10T14:03:28.314Z,30.20
2022-08-10T14:05:58.467Z,30.30
2022-08-10T14:08:31.602Z,30.40
2022-08-10T14:11:11.004Z,30.50
2022-08-10T14:13:45.678Z,30.60
2022-08-10T14:16:15.531Z,30.70
2022-08-10T14:18:45.982Z,30.80
2022-08-10T14:25:08.796Z,31.00
2022-08-10T14:28:02.867Z,31.00
2022-08-10T14:30:34.431Z,31.00
2022-08-10T14:33:05.243Z,31.00
2022-08-10T14:36:19.683Z,31.10
2022-08-10T14:38:36.925Z,31.10
2022-08-10T14:42:02.546Z,31.20
2022-08-10T14:44:09.108Z,31.30
2022-08-10T14:46:44.330Z,31.40
2022-08-10T14:49:25.673Z,31.50
2022-08-10T14:52:01.337Z,31.60
2022-08-10T14:54:32.741Z,31.70
2022-08-10T14:57:10.897Z,31.80
2022-08-10T15:00:23.051Z,32.00
2022-08-10T15:06:18.926Z,32.40
2022-08-10T15:08:48.616Z,32.50
2022-08-10T15:12:13.200Z,32.60
2022-08-10T15:14:29.404Z,32.70
2022-08-10T15:17:00.455Z,32.80
2022-08-10T15:20:04.590Z,32.90
2022-08-10T15:22:37.137Z,33.00
2022-08-10T15:25:17.653Z,33.10
2022-08-10T15:27:54.834Z,33.10
2022-08-10T15:30:30.852Z,33.20
2022-08-10T15:33:20.966Z,33.20
2022-08-10T15:36:41.857Z,33.20
2022-08-10T15:40:20.532Z,33.20
2022-08-10T15:42:08.562Z,33.20
2022-08-10T15:44:39.262Z,33.20
2022-08-10T15:47:12.239Z,33.40
2022-08-10T15:49:48.965Z,33.40
2022-08-10T15:52:39.118Z,33.30
2022-08-10T15:55:41.033Z,33.30
2022-08-10T15:58:06.718Z,33.20
2022-08-10T16:00:41.388Z,33.00
2022-08-10T16:03:17.061Z,32.80
2022-08-10T16:06:02.052Z,32.80
2022-08-10T16:08:56.099Z,32.70
2022-08-10T16:11:37.988Z,32.60
2022-08-10T16:14:15.233Z,32.50
2022-08-10T16:16:49.096Z,32.40
2022-08-10T16:19:25.427Z,32.40
2022-08-10T16:21:58.436Z,32.30
2022-08-10T16:24:28.371Z,32.10
2022-08-10T16:27:20.954Z,32.10
2022-08-10T16:29:56.039Z,32.00
2022-08-10T16:32:25.563Z,31.90
2022-08-10T16:34:56.513Z,31.80
2022-08-10T16:37:58.245Z,31.70
2022-08-10T16:40:24.297Z,31.50
2022-08-10T16:42:53.504Z,31.40
2022-08-10T16:45:30.185Z,31.40
2022-08-10T16:47:59.826Z,31.30
2022-08-10T16:50:34.119Z,31.20
2022-08-10T16:53:03.642Z,31.20
2022-08-10T16:55:49.124Z,31.10
2022-08-10T16:58:25.587Z,31.10
2022-08-10T17:00:55.075Z,31.00
2022-08-10T17:04:07.283Z,30.90
2022-08-10T17:06:24.571Z,30.90
2022-08-10T17:08:56.580Z,30.90
2022-08-10T17:11:29.958Z,30.80
2022-08-10T17:13:58.949Z,30.80
2022-08-10T17:16:35.461Z,30.70
2022-08-10T17:19:05.679Z,30.70
2022-08-10T17:21:51.942Z,30.70
2022-08-10T17:24:23.966Z,30.60
2022-08-10T17:26:52.971Z,30.60
2022-08-10T17:29:57.186Z,30.50
2022-08-10T17:32:21.367Z,30.50
2022-08-10T17:34:54.070Z,30.50
2022-08-10T17:37:26.231Z,30.40
2022-08-10T17:40:00.596Z,30.40
2022-08-10T17:42:29.323Z,30.40
2022-08-10T17:44:59.382Z,30.40
2022-08-10T17:47:28.609Z,30.40
2022-08-10T17:50:00.799Z,30.30
2022-08-10T17:52:33.739Z,30.30
2022-08-10T17:55:05.793Z,30.30
2022-08-10T17:57:38.572Z,30.20
2022-08-10T18:00:14.651Z,30.20
2022-08-10T18:02:46.324Z,30.10
2022-08-10T18:05:15.458Z,30.10
2022-08-10T18:07:48.655Z,30.00
2022-08-10T18:10:19.740Z,30.00
2022-08-10T18:12:49.975Z,29.90
2022-08-10T18:15:22.135Z,29.80
2022-08-10T18:17:59.200Z,29.70
2022-08-10T18:20:35.156Z,29.60
2022-08-10T18:23:06.146Z,29.50
2022-08-10T18:25:36.723Z,29.40
2022-08-10T18:28:09.517Z,29.30
2022-08-10T18:30:48.321Z,29.20
2022-08-10T18:33:18.488Z,29.00
2022-08-10T18:35:48.175Z,28.90
2022-08-10T18:38:19.006Z,28.80
2022-08-10T18:40:53.410Z,28.70
2022-08-10T18:44:10.786Z,28.60
2022-08-10T18:46:19.552Z,28.40
2022-08-10T18:48:53.306Z,28.30
2022-08-10T18:51:26.817Z,28.20
2022-08-10T18:53:59.737Z,28.10
2022-08-10T18:56:49.355Z,28.00
2022-08-10T18:59:39.253Z,27.90
2022-08-10T19:02:42.192Z,27.80
2022-08-10T19:05:31.025Z,27.70
2022-08-10T19:08:29.896Z,27.60
2022-08-10T19:11:04.828Z,27.60
2022-08-10T19:13:51.211Z,27.50
2022-08-10T19:16:35.704Z,27.50
2022-08-10T19:19:22.580Z,27.30
2022-08-10T19:22:00.752Z,27.30
2022-08-10T19:24:37.456Z,27.20
2022-08-10T19:27:15.199Z,27.20
2022-08-10T19:30:09.665Z,27.10
2022-08-10T19:32:51.239Z,27.00
2022-08-10T19:35:31.179Z,27.00
2022-08-10T19:38:16.702Z,26.90
2022-08-10T19:40:52.966Z,26.80
2022-08-10T19:43:59.467Z,26.80
2022-08-10T19:46:28.273Z,26.70
2022-08-10T19:49:01.840Z,26.60
2022-08-10T19:51:41.897Z,26.60
2022-08-10T19:54:18.915Z,26.50
2022-08-10T19:57:04.500Z,26.40
2022-08-10T20:00:16.346Z,26.40
2022-08-10T20:02:33.372Z,26.30
2022-08-10T20:05:07.060Z,26.30
2022-08-10T20:07:43.707Z,26.20
2022-08-10T20:10:17.662Z,26.20
2022-08-10T20:12:52.752Z,26.10
2022-08-10T20:15:30.625Z,26.00
2022-08-10T20:18:14.044Z,26.00
2022-08-10T20:20:45.779Z,25.90
2022-08-10T20:23:18.780Z,25.90
2022-08-10T20:25:56.366Z,25.80
2022-08-10T20:28:35.329Z,25.80
2022-08-10T20:31:17.076Z,25.80
2022-08-10T20:34:00.947Z,25.70
2022-08-10T20:36:32.903Z,25.70
2022-08-10T20:39:11.186Z,25.60
2022-08-10T20:41:55.994Z,25.60
2022-08-10T20:44:43.407Z,25.50
2022-08-10T20:47:20.489Z,25.50
2022-08-10T20:49:58.974Z,25.40
2022-08-10T20:52:27.310Z,25.30
2022-08-10T20:55:01.571Z,25.30
2022-08-10T20:57:59.115Z,25.20
2022-08-10T21:00:45.059Z,25.20
2022-08-10T21:03:31.809Z,25.10
2022-08-10T21:06:41.081Z,25.10
2022-08-10T21:09:25.509Z,25.00
2022-08-10T21:12:07.464Z,25.00
2022-08-10T21:14:47.650Z,24.90
2022-08-10T21:17:37.294Z,24.90
2022-08-10T21:20:30.517Z,24.90
2022-08-10T21:23:05.463Z,24.80
2022-08-10T21:25:44.817Z,24.70
2022-08-10T21:28:29.712Z,24.70
2022-08-10T21:31:21.996Z,24.70
2022-08-10T21:34:13.336Z,24.60
2022-08-10T21:36:50.889Z,24.60
2022-08-10T21:39:42.241Z,24.50
2022-08-10T21:42:38.769Z,24.50
2022-08-10T21:45:58.073Z,24.50
2022-08-10T21:48:57.139Z,24.40
2022-08-10T21:52:01.696Z,24.40
2022-08-10T21:55:02.709Z,24.30
2022-08-10T21:58:03.473Z,24.30
2022-08-10T22:00:49.968Z,24.20
2022-08-10T22:03:40.235Z,24.10
2022-08-10T22:06:27.640Z,24.20
2022-08-10T22:09:20.633Z,24.10
2022-08-10T22:12:24.965Z,24.00
2022-08-10T22:16:03.792Z,24.00
2022-08-10T22:18:33.679Z,24.00
2022-08-10T22:21:30.082Z,23.90
2022-08-10T22:24:41.469Z,23.90
2022-08-10T22:27:46.229Z,23.80
2022-08-10T22:30:34.696Z,23.80
2022-08-10T22:33:33.495Z,23.80
2022-08-10T22:36:50.703Z,23.70
2022-08-10T22:40:10.158Z,23.70
2022-08-10T22:43:10.400Z,23.60
2022-08-10T22:46:03.858Z,23.60
2022-08-10T22:48:51.640Z,23.50
2022-08-10T22:51:23.684Z,23.50
2022-08-10T22:54:31.433Z,23.40
2022-08-10T22:57:19.553Z,23.40
2022-08-10T22:59:50.438Z,23.40
2022-08-10T23:02:30.488Z,23.30
2022-08-10T23:05:05.594Z,23.40
2022-08-10T23:07:36.599Z,23.30
2022-08-10T23:10:08.469Z,23.30
2022-08-10T23:12:40.343Z,23.20
2022-08-10T23:15:37.169Z,23.20
2022-08-10T23:18:25.679Z,23.10
2022-08-10T23:20:57.503Z,23.10
2022-08-10T23:23:28.755Z,23.00
2022-08-10T23:26:01.372Z,23.00
2022-08-10T23:28:39.364Z,23.00
2022-08-10T23:31:50.196Z,22.90
2022-08-10T23:34:20.697Z,22.90
2022-08-10T23:36:50.873Z,22.90
2022-08-10T23:39:25.592Z,22.80
2022-08-10T23:42:00.737Z,22.80
2022-08-10T23:44:41.437Z,22.80
2022-08-10T23:47:13.687Z,22.70
2022-08-10T23:49:43.945Z,22.70
2022-08-10T23:52:14.825Z,22.70
2022-08-10T23:54:49.087Z,22.60
2022-08-10T23:57:20.059Z,22.60
2022-08-10T23:59:53.893Z,22.60
